Time;durP1;ratioP1;P1;durP2;ratioP2;P2;SDS_P1;SDS_P2;PMS_P1;PMS_P2;Temp;Humidity;BMP_temperature;BMP_pressure;BME280_temperature;BME280_humidity;BME280_pressure;Samples;Min_cycle;Max_cycle;Signal;HPM_P1;HPM_P2
2022/07/21 00:01:53;;;;;;;1.70;1.60;;;14.10;99.90;14.20;97495.00;;;;5041851;27;88527;-61
2022/07/21 00:04:20;;;;;;;1.90;1.67;;;14.10;99.90;14.20;97494.00;;;;5043096;28;89379;-61
2022/07/21 00:06:47;;;;;;;2.92;1.85;;;14.10;99.90;14.20;97497.00;;;;5044081;27;87270;-61
2022/07/21 00:09:15;;;;;;;1.80;1.70;;;14.10;99.90;14.20;97494.00;;;;5044119;27;87052;-62
2022/07/21 00:11:41;;;;;;;2.67;1.88;;;14.10;99.90;14.10;97488.00;;;;5043508;27;87549;-61
2022/07/21 00:14:09;;;;;;;2.10;1.80;;;14.00;99.90;14.10;97493.00;;;;5043500;28;87590;-61
2022/07/21 00:16:39;;;;;;;1.98;1.80;;;14.10;99.90;14.10;97492.00;;;;5043250;28;88086;-60
2022/07/21 00:19:05;;;;;;;4.35;1.77;;;14.00;99.90;14.10;97495.00;;;;5043861;28;86268;-60
2022/07/21 00:21:31;;;;;;;2.08;1.88;;;14.00;99.90;14.10;97501.00;;;;5042745;28;88716;-61
2022/07/21 00:23:57;;;;;;;3.25;1.60;;;14.00;99.90;14.10;97487.00;;;;5042776;27;88168;-60
2022/07/21 00:26:24;;;;;;;3.13;1.95;;;14.00;99.90;14.10;97488.00;;;;5042451;27;88122;-60
2022/07/21 00:28:50;;;;;;;1.80;1.70;;;14.00;99.90;14.10;97498.00;;;;5043396;28;86939;-60
2022/07/21 00:31:16;;;;;;;2.03;1.83;;;14.00;99.90;14.10;97495.00;;;;5042691;27;87655;-60
2022/07/21 00:33:42;;;;;;;1.75;1.65;;;14.00;99.90;14.10;97493.00;;;;5035348;28;87378;-60
2022/07/21 00:36:08;;;;;;;1.75;1.60;;;14.00;99.90;14.10;97494.00;;;;5041428;28;87036;-60
2022/07/21 00:38:35;;;;;;;2.30;1.80;;;14.10;99.90;14.10;97487.00;;;;5042504;28;88303;-60
2022/07/21 00:41:01;;;;;;;2.88;1.60;;;14.00;99.90;14.10;97493.00;;;;5043200;27;87388;-60
2022/07/21 00:43:27;;;;;;;2.58;1.55;;;14.10;99.90;14.10;97482.00;;;;5043021;28;86825;-60
2022/07/21 00:45:55;;;;;;;4.45;3.22;;;14.10;99.90;14.10;97485.00;;;;5033359;28;87549;-60
2022/07/21 00:48:22;;;;;;;7.35;2.03;;;14.10;99.90;14.10;97477.00;;;;5042238;27;86919;-60
2022/07/21 00:50:48;;;;;;;4.85;2.28;;;14.10;99.90;14.20;97487.00;;;;5042577;28;88532;-60
2022/07/21 00:53:15;;;;;;;3.45;2.20;;;14.10;99.90;14.20;97485.00;;;;5041830;28;89406;-60
2022/07/21 00:55:44;;;;;;;2.30;2.10;;;14.10;99.90;14.20;97490.00;;;;5043111;27;87003;-61
2022/07/21 00:58:11;;;;;;;4.93;1.92;;;14.20;99.90;14.20;97490.00;;;;5043164;27;87325;-61
2022/07/21 01:00:38;;;;;;;2.03;1.90;;;14.10;99.90;14.20;97487.00;;;;5043298;27;87438;-60
2022/07/21 01:03:04;;;;;;;2.95;2.03;;;14.20;99.90;14.20;97474.00;;;;5043665;28;87695;-61
2022/07/21 01:05:30;;;;;;;6.70;2.17;;;14.10;99.90;14.30;97491.00;;;;5042686;28;87489;-60
2022/07/21 01:08:02;;;;;;;4.35;1.90;;;14.10;99.90;14.20;97491.00;;;;5042941;28;86423;-60
2022/07/21 01:10:30;;;;;;;2.25;1.90;;;14.10;99.90;14.20;97487.00;;;;5042499;27;88744;-60
2022/07/21 01:12:58;;;;;;;3.25;2.13;;;14.20;99.90;14.20;97491.00;;;;5042509;27;88415;-60
2022/07/21 01:15:24;;;;;;;2.08;1.88;;;14.10;99.90;14.20;97485.00;;;;5042455;27;87916;-60
2022/07/21 01:17:51;;;;;;;3.22;2.10;;;14.20;99.90;14.20;97482.00;;;;5043081;27;86954;-60
2022/07/21 01:20:21;;;;;;;5.20;1.77;;;14.20;99.90;14.30;97476.00;;;;5035669;27;87652;-60
2022/07/21 01:22:51;;;;;;;4.75;2.05;;;14.20;99.90;14.30;97486.00;;;;5038771;28;87420;-60
2022/07/21 01:25:19;;;;;;;5.93;1.80;;;14.20;99.90;14.30;97496.00;;;;5042542;28;87077;-60
2022/07/21 01:27:46;;;;;;;3.47;2.15;;;14.10;99.90;14.30;97487.00;;;;5042038;28;87546;-60
2022/07/21 01:30:12;;;;;;;4.03;2.13;;;14.20;99.90;14.20;97494.00;;;;5042421;28;87795;-60
2022/07/21 01:32:40;;;;;;;3.03;1.80;;;14.10;99.90;14.20;97492.00;;;;5039621;28;87354;-60
2022/07/21 01:35:11;;;;;;;2.40;1.55;;;14.10;99.90;14.20;97477.00;;;;5042659;27;86958;-60
2022/07/21 01:37:42;;;;;;;2.15;1.92;;;14.00;99.90;14.20;97489.00;;;;5040029;27;87000;-60
2022/07/21 01:42:55;;;;;;;3.13;2.00;;;14.20;99.90;14.20;97494.00;;;;5042568;28;87876;-60
2022/07/21 01:45:22;;;;;;;4.40;2.20;;;14.10;99.90;14.20;97494.00;;;;5042401;27;87026;-60
2022/07/21 01:47:49;;;;;;;5.22;2.30;;;14.20;99.90;14.30;97493.00;;;;5041573;27;86930;-60
2022/07/21 01:50:16;;;;;;;4.25;2.60;;;14.20;99.90;14.20;97495.00;;;;5042276;28;87476;-60
2022/07/21 01:52:42;;;;;;;5.43;2.25;;;14.10;99.90;14.20;97486.00;;;;5042937;28;87483;-60
2022/07/21 01:55:08;;;;;;;5.18;2.50;;;14.20;99.90;14.30;97490.00;;;;5042074;27;86960;-60
2022/07/21 01:57:34;;;;;;;4.90;2.55;;;14.20;99.90;14.30;97473.00;;;;5041727;28;86351;-60
2022/07/21 02:00:01;;;;;;;4.22;2.40;;;14.20;99.90;14.30;97487.00;;;;5041637;27;87368;-60
2022/07/21 02:02:34;;;;;;;4.00;2.40;;;14.20;99.90;14.30;97480.00;;;;5042115;28;87759;-60
2022/07/21 02:05:00;;;;;;;5.53;3.08;;;14.20;99.90;14.30;97480.00;;;;5041739;27;89479;-60
2022/07/21 02:07:26;;;;;;;3.63;3.20;;;14.20;99.90;14.30;97480.00;;;;5040312;28;87042;-60
2022/07/21 02:09:52;;;;;;;7.03;4.03;;;14.10;99.90;14.20;97494.00;;;;5041487;27;87632;-61
2022/07/21 02:12:18;;;;;;;3.97;3.40;;;14.10;99.90;14.20;97495.00;;;;5041610;28;87434;-60
2022/07/21 02:14:44;;;;;;;5.28;3.60;;;14.10;99.90;14.20;97490.00;;;;5040946;27;87153;-60
2022/07/21 02:17:10;;;;;;;7.43;3.50;;;14.20;99.90;14.20;97496.00;;;;5041546;27;87058;-60
2022/07/21 02:19:37;;;;;;;5.50;3.75;;;14.10;99.90;14.20;97483.00;;;;5040278;28;87661;-60
2022/07/21 02:22:03;;;;;;;5.68;4.20;;;14.10;99.90;14.20;97490.00;;;;5042411;28;87268;-60
2022/07/21 02:24:29;;;;;;;4.68;3.70;;;14.10;99.90;14.20;97485.00;;;;5041272;27;86975;-60
2022/07/21 02:26:55;;;;;;;4.97;3.70;;;14.10;99.90;14.20;97472.00;;;;5038070;28;87043;-60
2022/07/21 02:29:21;;;;;;;4.75;3.38;;;14.10;99.90;14.20;97474.00;;;;5040354;27;88505;-60
2022/07/21 02:31:48;;;;;;;4.47;3.55;;;14.10;99.90;14.20;97479.00;;;;5038692;28;88137;-61
2022/07/21 02:34:14;;;;;;;7.03;4.53;;;14.20;99.90;14.30;97470.00;;;;5040538;28;86968;-61
2022/07/21 02:36:40;;;;;;;5.53;4.25;;;14.10;99.90;14.30;97475.00;;;;5037568;28;87267;-60
2022/07/21 02:39:06;;;;;;;5.25;4.60;;;14.20;99.90;14.30;97472.00;;;;5040705;28;88872;-60
2022/07/21 02:41:32;;;;;;;4.28;3.83;;;14.20;99.90;14.30;97476.00;;;;5041417;28;87395;-60
2022/07/21 02:43:58;;;;;;;5.38;3.80;;;14.20;99.90;14.40;97474.00;;;;5041666;27;86844;-60
2022/07/21 02:46:24;;;;;;;4.90;4.15;;;14.20;99.90;14.40;97483.00;;;;5042079;27;86306;-60
2022/07/21 02:48:50;;;;;;;5.65;4.47;;;14.30;99.90;14.40;97475.00;;;;5041422;28;88148;-60
2022/07/21 02:51:16;;;;;;;5.00;4.15;;;14.40;99.90;14.50;97473.00;;;;5041409;27;87106;-60
2022/07/21 02:53:43;;;;;;;8.00;4.00;;;14.30;99.90;14.50;97474.00;;;;5040923;27;88148;-60
2022/07/21 02:56:09;;;;;;;6.38;4.43;;;14.30;99.90;14.50;97471.00;;;;5041146;28;87491;-60
2022/07/21 02:58:35;;;;;;;5.07;4.38;;;14.30;99.90;14.50;97466.00;;;;5041395;27;88676;-60
2022/07/21 03:01:04;;;;;;;6.72;4.55;;;14.40;99.90;14.50;97468.00;;;;5044891;28;87439;-61
2022/07/21 03:03:34;;;;;;;6.20;5.15;;;14.30;99.90;14.50;97472.00;;;;5045789;27;86959;-61
2022/07/21 03:06:01;;;;;;;7.78;5.82;;;14.40;99.90;14.50;97466.00;;;;5044079;27;87377;-60
2022/07/21 03:08:30;;;;;;;9.15;6.18;;;14.40;99.90;14.50;97466.00;;;;5045091;27;87431;-60
2022/07/21 03:10:56;;;;;;;6.88;4.82;;;14.30;99.90;14.50;97468.00;;;;5044746;27;87386;-60
2022/07/21 03:13:23;;;;;;;7.63;5.30;;;14.40;99.90;14.50;97468.00;;;;5042470;28;87199;-60
2022/07/21 03:15:49;;;;;;;8.25;5.55;;;14.40;99.90;14.60;97469.00;;;;5044034;27;87028;-60
2022/07/21 03:18:16;;;;;;;8.43;5.95;;;14.40;99.90;14.60;97467.00;;;;5044128;28;88723;-60
2022/07/21 03:20:43;;;;;;;7.53;5.35;;;14.40;99.90;14.50;97464.00;;;;5044411;28;88257;-61
2022/07/21 03:23:09;;;;;;;7.18;4.30;;;14.40;99.90;14.50;97466.00;;;;5043853;28;86939;-61
2022/07/21 03:25:36;;;;;;;8.95;5.43;;;14.40;99.90;14.60;97454.00;;;;5044115;28;87485;-60
2022/07/21 03:28:03;;;;;;;6.63;5.65;;;14.40;99.90;14.60;97451.00;;;;5044200;27;87630;-60
2022/07/21 03:30:29;;;;;;;7.40;5.53;;;14.40;99.90;14.50;97449.00;;;;5043968;28;87547;-60
2022/07/21 03:32:56;;;;;;;7.68;5.03;;;14.40;99.90;14.50;97460.00;;;;5031086;27;89058;-60
2022/07/21 03:35:23;;;;;;;7.60;5.68;;;14.40;99.90;14.50;97451.00;;;;5032221;28;86679;-60
2022/07/21 03:37:58;;;;;;;8.98;5.45;;;14.40;99.90;14.60;97465.00;;;;5042643;27;87657;-60
2022/07/21 03:40:28;;;;;;;7.93;4.70;;;14.40;99.90;14.60;97455.00;;;;5042230;28;88273;-60
2022/07/21 03:42:57;;;;;;;6.95;5.53;;;14.50;99.90;14.60;97456.00;;;;5043575;27;88427;-60
2022/07/21 03:45:25;;;;;;;5.45;4.80;;;14.50;99.90;14.70;97458.00;;;;5043986;28;86997;-60
2022/07/21 03:47:51;;;;;;;6.10;4.57;;;14.50;99.90;14.60;97451.00;;;;5043535;28;87618;-60
2022/07/21 03:50:18;;;;;;;8.07;5.55;;;14.50;99.90;14.60;97458.00;;;;5043532;27;87713;-60
2022/07/21 03:52:45;;;;;;;10.98;6.70;;;15.10;99.90;14.60;97453.00;;;;5043777;28;87003;-60
2022/07/21 03:55:14;;;;;;;6.57;5.75;;;14.50;99.90;14.70;97458.00;;;;5043679;28;87134;-60
2022/07/21 03:57:52;;;;;;;6.10;5.50;;;14.60;99.90;14.70;97452.00;;;;5043517;27;87815;-60
2022/07/21 04:00:38;;;;;;;6.55;5.45;;;14.60;99.90;14.70;97455.00;;;;5043808;27;87509;-60
2022/07/21 04:03:06;;;;;;;7.90;7.20;;;14.50;99.90;14.70;97454.00;;;;5044013;27;86976;-61
2022/07/21 04:05:33;;;;;;;9.55;7.55;;;14.50;99.90;14.60;97452.00;;;;5043599;27;87026;-60
2022/07/21 04:08:00;;;;;;;8.00;7.30;;;14.50;99.90;14.70;97445.00;;;;5040618;28;88625;-60
2022/07/21 04:10:29;;;;;;;10.80;9.90;;;14.50;99.90;14.70;97454.00;;;;5039813;27;88418;-60
2022/07/21 04:12:58;;;;;;;9.45;8.63;;;14.50;99.90;14.70;97458.00;;;;5051036;27;87221;-60
2022/07/21 04:15:24;;;;;;;9.00;8.18;;;14.50;99.90;14.70;97452.00;;;;5039991;28;86899;-60
2022/07/21 04:17:51;;;;;;;7.85;7.25;;;14.50;99.90;14.60;97460.00;;;;5042747;28;88813;-60
2022/07/21 04:20:18;;;;;;;8.00;7.50;;;14.50;99.90;14.60;97459.00;;;;5041435;28;89154;-60
2022/07/21 04:22:46;;;;;;;10.05;9.30;;;14.50;99.90;14.60;97452.00;;;;5043509;27;86978;-60
2022/07/21 04:25:13;;;;;;;9.15;8.55;;;14.50;99.90;14.60;97456.00;;;;5042891;28;86235;-60
2022/07/21 04:27:40;;;;;;;8.57;7.97;;;14.40;99.90;14.60;97451.00;;;;5041657;28;87468;-60
2022/07/21 04:30:10;;;;;;;9.48;8.68;;;14.50;99.90;14.60;97453.00;;;;5042995;28;88490;-60
2022/07/21 04:32:37;;;;;;;11.13;10.32;;;14.40;99.90;14.60;97459.00;;;;5040817;28;88984;-60
2022/07/21 04:35:06;;;;;;;8.25;7.63;;;14.40;99.90;14.60;97455.00;;;;5042530;27;86938;-60
2022/07/21 04:37:33;;;;;;;10.48;9.73;;;14.50;99.90;14.60;97454.00;;;;5041893;27;88711;-61
2022/07/21 04:40:00;;;;;;;10.02;9.32;;;14.50;99.90;14.60;97449.00;;;;5040739;28;87507;-60
2022/07/21 04:42:26;;;;;;;7.43;6.82;;;14.50;99.90;14.60;97449.00;;;;5042979;27;86837;-60
2022/07/21 04:44:52;;;;;;;10.07;9.18;;;14.50;99.90;14.60;97461.00;;;;5043510;27;86957;-61
2022/07/21 04:47:19;;;;;;;9.40;8.70;;;14.50;99.90;14.70;97456.00;;;;5042970;28;87503;-60
2022/07/21 04:49:45;;;;;;;9.30;8.50;;;14.60;99.90;14.70;97465.00;;;;5043236;28;86562;-60
2022/07/21 04:52:11;;;;;;;7.88;7.18;;;14.70;99.90;14.80;97470.00;;;;5042595;28;87001;-61
2022/07/21 04:54:37;;;;;;;9.20;8.48;;;14.70;99.90;14.80;97470.00;;;;5042773;28;87117;-60
2022/07/21 04:57:05;;;;;;;8.63;7.55;;;14.70;99.90;14.80;97475.00;;;;5041956;28;87973;-60
2022/07/21 04:59:33;;;;;;;7.85;7.18;;;14.70;99.90;14.90;97463.00;;;;5042242;28;88178;-60
2022/07/21 05:01:59;;;;;;;7.15;6.53;;;14.90;99.90;15.00;97464.00;;;;5042709;28;87055;-60
2022/07/21 05:04:26;;;;;;;6.00;5.45;;;14.90;99.90;15.00;97461.00;;;;5042878;27;86958;-60
2022/07/21 05:06:53;;;;;;;5.85;5.28;;;15.00;99.90;15.20;97458.00;;;;5040514;28;87603;-60
2022/07/21 05:09:19;;;;;;;6.47;4.47;;;;;15.10;97469.00;;;;5042641;28;87410;-61
2022/07/21 05:11:45;;;;;;;5.75;5.25;;;15.10;99.90;15.20;97458.00;;;;5042073;28;87461;-61
2022/07/21 05:14:12;;;;;;;6.53;4.90;;;15.10;99.90;15.20;97458.00;;;;5042423;27;86907;-61
2022/07/21 05:16:38;;;;;;;4.72;4.15;;;15.10;99.90;15.20;97471.00;;;;5041842;28;89118;-61
2022/07/21 05:19:04;;;;;;;6.38;4.20;;;15.10;99.90;15.30;97468.00;;;;5038573;28;87694;-61
2022/07/21 05:21:30;;;;;;;4.80;4.05;;;15.20;99.90;15.30;97472.00;;;;5041494;27;88072;-61
2022/07/21 05:23:56;;;;;;;5.70;4.80;;;15.20;99.90;15.30;97477.00;;;;5041527;28;87950;-61
2022/07/21 05:26:23;;;;;;;4.78;4.30;;;;;15.30;97464.00;;;;5041521;27;87670;-61
2022/07/21 05:28:49;;;;;;;4.97;4.07;;;15.30;99.90;15.40;97463.00;;;;5042264;28;87090;-61
2022/07/21 05:31:15;;;;;;;5.05;4.00;;;15.40;99.90;15.60;97464.00;;;;5042468;28;87131;-61
2022/07/21 05:33:41;;;;;;;6.78;3.85;;;15.50;99.90;15.60;97470.00;;;;5041573;27;87634;-61
2022/07/21 05:36:08;;;;;;;3.67;3.38;;;15.50;99.90;15.60;97475.00;;;;5041252;27;88362;-61
2022/07/21 05:38:34;;;;;;;4.85;3.25;;;15.60;99.90;15.80;97470.00;;;;5039323;28;88514;-61
2022/07/21 05:41:02;;;;;;;3.15;2.83;;;15.70;99.90;15.80;97477.00;;;;5041389;27;86974;-61
2022/07/21 05:43:30;;;;;;;4.47;2.88;;;15.70;99.90;15.80;97479.00;;;;5049790;27;87091;-61
2022/07/21 05:45:57;;;;;;;3.38;3.08;;;15.70;99.90;15.90;97485.00;;;;5040993;28;87876;-61
2022/07/21 05:48:24;;;;;;;4.60;3.20;;;15.80;99.90;16.00;97475.00;;;;5037992;28;88003;-61
2022/07/21 05:50:50;;;;;;;4.60;3.00;;;15.90;99.90;16.00;97481.00;;;;5041247;27;86841;-61
2022/07/21 05:53:16;;;;;;;4.50;3.10;;;15.90;99.90;16.10;97483.00;;;;5041760;28;87447;-61
2022/07/21 05:55:43;;;;;;;5.43;3.28;;;15.90;99.90;16.00;97478.00;;;;5041218;28;87569;-61
2022/07/21 05:58:09;;;;;;;5.20;3.20;;;15.90;99.90;16.00;97475.00;;;;5041348;28;88572;-61
2022/07/21 06:00:35;;;;;;;4.05;2.83;;;15.90;99.90;16.10;97470.00;;;;5040529;28;87538;-61
2022/07/21 06:03:01;;;;;;;5.45;2.70;;;16.10;99.90;16.20;97478.00;;;;5042147;28;86336;-61
2022/07/21 06:05:28;;;;;;;4.22;2.63;;;16.20;99.90;16.30;97471.00;;;;5041346;28;88716;-61
2022/07/21 06:07:54;;;;;;;3.33;2.90;;;16.30;99.90;16.40;97469.00;;;;5041787;28;87322;-61
2022/07/21 06:10:20;;;;;;;3.42;2.45;;;16.40;99.90;16.50;97477.00;;;;5040989;28;88299;-61
2022/07/21 06:12:46;;;;;;;3.25;2.30;;;16.60;99.90;16.80;97477.00;;;;5041090;28;87065;-61
2022/07/21 06:15:14;;;;;;;3.40;2.40;;;17.00;99.90;17.30;97479.00;;;;5040370;28;87537;-61
2022/07/21 06:17:45;;;;;;;2.92;2.35;;;17.20;99.90;17.50;97482.00;;;;5041650;28;87417;-60
2022/07/21 06:20:14;;;;;;;3.35;2.20;;;17.20;99.90;17.30;97476.00;;;;5041884;27;86955;-61
2022/07/21 06:22:40;;;;;;;3.38;2.10;;;17.40;99.90;17.60;97472.00;;;;5042148;27;86943;-61
2022/07/21 06:25:07;;;;;;;3.78;2.10;;;18.00;99.90;18.30;97465.00;;;;5040800;28;88587;-61
2022/07/21 06:27:33;;;;;;;2.35;1.77;;;18.00;99.90;18.60;97460.00;;;;5041302;27;88482;-61
2022/07/21 06:29:59;;;;;;;2.70;1.88;;;18.00;99.90;18.30;97459.00;;;;5034599;28;87052;-61
2022/07/21 06:32:26;;;;;;;3.90;2.05;;;;;18.30;97464.00;;;;5040426;27;87910;-61
2022/07/21 06:34:52;;;;;;;4.65;2.20;;;18.10;99.90;18.30;97473.00;;;;5039682;28;88658;-61
2022/07/21 06:37:18;;;;;;;4.28;1.90;;;18.10;99.90;18.10;97470.00;;;;5038952;28;88451;-61
2022/07/21 06:39:44;;;;;;;3.15;1.95;;;18.00;99.90;18.20;97455.00;;;;5040836;27;86970;-61
2022/07/21 06:42:11;;;;;;;3.63;1.95;;;18.20;99.90;18.40;97456.00;;;;5041308;28;86822;-61
2022/07/21 06:44:37;;;;;;;3.38;1.65;;;18.50;99.90;18.80;97465.00;;;;5040798;27;87868;-61
2022/07/21 06:47:04;;;;;;;3.65;1.50;;;19.00;99.90;19.20;97471.00;;;;5040756;27;87733;-61
2022/07/21 06:49:34;;;;;;;3.58;1.60;;;19.00;99.90;19.20;97461.00;;;;5040822;28;86937;-61
2022/07/21 06:52:00;;;;;;;2.08;1.42;;;19.00;99.90;19.10;97498.00;;;;5041024;28;86529;-61
2022/07/21 06:54:26;;;;;;;1.77;1.35;;;18.80;99.90;18.90;97489.00;;;;5040379;28;87653;-61
2022/07/21 06:56:52;;;;;;;2.75;1.60;;;18.70;99.90;18.90;97490.00;;;;5040151;28;87262;-61
2022/07/21 06:59:18;;;;;;;6.97;1.45;;;18.90;99.90;18.90;97502.00;;;;5040523;27;87911;-61
2022/07/21 07:01:44;;;;;;;1.58;1.20;;;18.90;99.90;19.00;97496.00;;;;5041103;28;87106;-61
2022/07/21 07:04:11;;;;;;;2.72;1.50;;;19.00;99.90;19.20;97487.00;;;;5040696;28;87796;-61
2022/07/21 07:06:37;;;;;;;2.10;1.15;;;18.70;99.90;19.00;97511.00;;;;5040183;27;87164;-61
2022/07/21 07:09:03;;;;;;;3.25;1.38;;;18.60;99.90;18.90;97525.00;;;;5040761;27;86963;-61
2022/07/21 07:11:29;;;;;;;4.82;1.63;;;18.70;99.90;19.00;97499.00;;;;5037005;28;87100;-61
2022/07/21 07:13:56;;;;;;;2.92;1.30;;;;;18.70;97526.00;;;;5039946;27;88692;-61
2022/07/21 07:16:22;;;;;;;4.18;1.45;;;18.30;99.90;18.60;97526.00;;;;5039923;27;87233;-61
2022/07/21 07:18:48;;;;;;;2.17;1.20;;;18.30;99.90;18.50;97534.00;;;;5041213;28;87084;-61
2022/07/21 07:21:14;;;;;;;1.77;1.52;;;17.80;99.90;18.00;97528.00;;;;5040524;27;87094;-61
2022/07/21 07:23:40;;;;;;;3.40;1.50;;;17.50;99.90;17.80;97535.00;;;;5039429;27;88902;-61
2022/07/21 07:26:08;;;;;;;4.38;1.80;;;17.50;99.90;17.90;97533.00;;;;5040344;27;88121;-61
2022/07/21 07:28:35;;;;;;;3.13;1.20;;;17.60;99.90;17.70;97548.00;;;;5040663;27;86970;-61
2022/07/21 07:31:01;;;;;;;5.95;1.48;;;17.50;99.90;17.60;97565.00;;;;5040288;28;87571;-61
2022/07/21 07:33:28;;;;;;;2.38;1.27;;;17.50;99.90;17.70;97554.00;;;;5038476;27;87340;-61
2022/07/21 07:35:56;;;;;;;5.35;1.40;;;17.50;99.90;17.60;97556.00;;;;5040139;28;87374;-61
2022/07/21 07:38:22;;;;;;;1.95;1.23;;;17.50;99.90;17.50;97559.00;;;;5039556;28;87148;-61
2022/07/21 07:40:48;;;;;;;1.63;1.10;;;16.90;99.90;17.00;97562.00;;;;5040310;28;86255;-61
2022/07/21 07:43:14;;;;;;;2.45;1.60;;;16.90;99.90;16.70;97545.00;;;;5040350;27;87709;-61
2022/07/21 07:45:40;;;;;;;4.95;1.50;;;16.60;99.90;16.80;97554.00;;;;5043054;27;87545;-61
2022/07/21 07:48:07;;;;;;;3.80;1.25;;;16.60;99.90;16.90;97565.00;;;;5026927;28;87917;-61
2022/07/21 07:50:33;;;;;;;3.95;1.40;;;16.70;99.90;16.90;97571.00;;;;5042897;28;87007;-61
2022/07/21 07:52:59;;;;;;;1.88;1.40;;;16.70;99.90;17.10;97576.00;;;;5033283;28;87791;-61
2022/07/21 07:55:26;;;;;;;3.95;1.50;;;16.90;99.90;17.10;97573.00;;;;5043598;27;87323;-61
2022/07/21 07:57:52;;;;;;;2.53;1.38;;;16.80;99.90;17.00;97587.00;;;;5043953;27;88052;-61
2022/07/21 08:00:19;;;;;;;2.33;1.75;;;16.80;99.90;16.90;97593.00;;;;5043838;27;87067;-61
2022/07/21 08:02:45;;;;;;;1.90;1.70;;;16.70;99.90;16.80;97589.00;;;;5043451;27;88579;-60
2022/07/21 08:05:12;;;;;;;2.58;1.65;;;16.70;99.90;16.80;97595.00;;;;5043809;27;87259;-61
2022/07/21 08:07:40;;;;;;;2.70;1.70;;;16.70;99.90;16.80;97600.00;;;;5044413;27;86919;-61
2022/07/21 08:10:11;;;;;;;4.68;2.20;;;16.80;99.90;16.90;97620.00;;;;5043562;27;87292;-60
2022/07/21 08:12:38;;;;;;;;;;;16.80;99.90;16.90;97602.00;;;;4990014;28;91223;-60
2022/07/21 08:15:05;;;;;;;2.83;2.05;;;16.80;99.90;16.80;97614.00;;;;5044044;27;87912;-61
2022/07/21 08:17:32;;;;;;;3.22;2.42;;;16.80;99.90;16.90;97599.00;;;;5043837;27;87439;-60
2022/07/21 08:19:58;;;;;;;5.20;2.95;;;16.80;99.90;17.20;97606.00;;;;5043980;27;87277;-60
2022/07/21 08:22:25;;;;;;;4.50;2.42;;;17.10;99.90;17.60;97607.00;;;;5043455;27;87722;-60
2022/07/21 08:24:51;;;;;;;4.18;2.40;;;18.00;99.90;18.20;97613.00;;;;5038377;28;87988;-60
2022/07/21 08:27:17;;;;;;;3.85;2.50;;;18.30;99.90;18.40;97614.00;;;;5057285;27;87381;-60
2022/07/21 08:29:43;;;;;;;4.13;2.70;;;18.50;99.90;18.60;97626.00;;;;5043722;28;86414;-60
2022/07/21 08:32:10;;;;;;;4.38;3.00;;;18.40;99.90;18.60;97625.00;;;;5039815;28;87747;-60
2022/07/21 08:34:36;;;;;;;4.28;3.10;;;18.40;99.90;18.50;97633.00;;;;5043636;27;88107;-60
2022/07/21 08:37:03;;;;;;;4.55;3.08;;;;;18.20;97629.00;;;;5039403;27;88062;-60
2022/07/21 08:39:29;;;;;;;4.20;3.10;;;18.10;99.90;18.10;97645.00;;;;5042113;27;87362;-60
2022/07/21 08:41:55;;;;;;;5.35;2.80;;;18.00;99.90;18.40;97632.00;;;;5042912;28;87589;-60
2022/07/21 08:44:22;;;;;;;4.13;2.97;;;18.50;99.90;18.60;97639.00;;;;5042437;28;87343;-61
2022/07/21 08:46:51;;;;;;;6.07;3.10;;;18.30;99.90;18.40;97649.00;;;;5043593;27;86875;-60
2022/07/21 08:49:22;;;;;;;7.75;3.78;;;17.80;99.90;17.90;97650.00;;;;5043209;27;87115;-60
2022/07/21 08:51:51;;;;;;;7.28;3.75;;;17.70;99.90;17.80;97650.00;;;;5042206;27;87908;-60
2022/07/21 08:54:20;;;;;;;6.80;3.90;;;17.70;99.90;17.80;97658.00;;;;5042807;27;88446;-61
2022/07/21 08:56:47;;;;;;;4.60;3.63;;;17.50;99.90;17.60;97662.00;;;;5041215;27;86952;-60
2022/07/21 08:59:13;;;;;;;7.68;4.30;;;17.80;99.90;18.00;97665.00;;;;5042718;28;86968;-60
2022/07/21 09:01:40;;;;;;;7.82;4.93;;;17.90;99.90;18.10;97681.00;;;;5042250;27;88694;-60
2022/07/21 09:04:31;;;;;;;7.97;4.43;;;17.80;99.90;18.00;97666.00;;;;5042803;28;88208;-60
2022/07/21 09:07:05;;;;;;;8.88;5.05;;;17.70;99.90;17.90;97670.00;;;;5042084;27;86844;-60
2022/07/21 09:09:33;;;;;;;7.90;5.03;;;17.80;99.90;17.90;97668.00;;;;5043290;27;86867;-61
2022/07/21 09:12:01;;;;;;;7.90;5.43;;;17.90;99.90;18.00;97676.00;;;;5041847;27;88672;-61
2022/07/21 09:14:31;;;;;;;6.78;5.15;;;17.90;99.90;17.90;97679.00;;;;5042014;28;87212;-61
2022/07/21 09:17:00;;;;;;;6.28;5.13;;;17.90;99.90;18.20;97674.00;;;;5041815;28;87388;-61
2022/07/21 09:19:31;;;;;;;7.13;3.88;;;18.10;99.90;18.20;97687.00;;;;5042720;28;86818;-61
2022/07/21 09:22:04;;;;;;;3.83;3.40;;;18.00;99.90;18.50;97689.00;;;;5041760;28;88690;-61
2022/07/21 09:24:37;;;;;;;5.20;3.28;;;18.60;99.90;18.70;97692.00;;;;5036811;28;87271;-60
2022/07/21 09:27:22;;;;;;;3.58;2.67;;;18.80;99.90;19.00;97702.00;;;;5040912;28;87985;-60
2022/07/21 09:30:00;;;;;;;4.43;3.22;;;19.00;99.90;19.10;97703.00;;;;5023347;28;87044;-61
2022/07/21 09:32:35;;;;;;;5.28;3.65;;;19.30;99.90;19.40;97700.00;;;;5035842;28;87832;-63
2022/07/21 09:35:14;;;;;;;6.45;3.83;;;19.60;99.90;19.70;97692.00;;;;5040332;27;87199;-62
2022/07/21 09:37:42;;;;;;;3.53;2.95;;;19.80;99.90;20.00;97712.00;;;;5039330;27;87192;-61
2022/07/21 09:40:15;;;;;;;5.10;2.97;;;19.40;99.90;19.40;97727.00;;;;5038767;27;87026;-61
2022/07/21 09:42:50;;;;;;;4.40;2.70;;;19.10;99.90;19.20;97731.00;;;;5039740;28;88754;-61
2022/07/21 09:45:19;;;;;;;4.38;2.13;;;19.20;99.90;19.40;97721.00;;;;5031379;28;88262;-61
2022/07/21 09:47:46;;;;;;;5.40;2.70;;;19.10;99.90;19.20;97734.00;;;;5027371;28;87489;-61
2022/07/21 09:50:15;;;;;;;4.15;2.63;;;19.00;99.90;19.20;97734.00;;;;5038875;28;87496;-61
2022/07/21 09:52:44;;;;;;;6.07;2.70;;;19.10;99.90;19.30;97720.00;;;;5038993;28;88633;-62
2022/07/21 09:55:16;;;;;;;6.05;3.40;;;19.10;99.90;19.20;97728.00;;;;5038220;28;88774;-61
2022/07/21 09:57:44;;;;;;;8.07;2.33;;;19.20;99.90;19.40;97744.00;;;;5039474;28;87059;-62
2022/07/21 10:00:16;;;;;;;2.85;2.28;;;19.10;99.90;19.30;97733.00;;;;5039441;27;87560;-63
2022/07/21 10:02:44;;;;;;;5.25;1.95;;;19.00;99.90;19.00;97732.00;;;;5031959;28;87658;-61
2022/07/21 10:05:20;;;;;;;4.18;2.00;;;19.00;99.90;19.10;97743.00;;;;5038593;27;87384;-61
2022/07/21 10:07:48;;;;;;;3.63;2.00;;;19.20;99.90;19.30;97717.00;;;;5039187;27;86999;-61
2022/07/21 10:10:16;;;;;;;2.97;2.10;;;19.40;99.90;19.50;97724.00;;;;5039140;27;86417;-61
2022/07/21 10:12:45;;;;;;;2.83;1.98;;;19.50;99.90;19.60;97726.00;;;;5039094;28;87744;-61
2022/07/21 10:15:12;;;;;;;2.45;1.80;;;19.70;99.90;19.80;97734.00;;;;5038814;28;88375;-61
2022/07/21 10:17:39;;;;;;;2.75;1.98;;;19.80;99.90;19.90;97741.00;;;;5039145;27;87885;-61
2022/07/21 10:20:26;;;;;;;3.63;2.17;;;20.00;99.90;20.00;97730.00;;;;5038330;28;87175;-61
2022/07/21 10:23:40;;;;;;;3.22;1.50;;;20.20;99.90;20.30;97751.00;;;;5039436;28;87560;-61
2022/07/21 10:26:08;;;;;;;4.03;1.42;;;20.20;99.90;20.20;97750.00;;;;5037866;28;88336;-61
2022/07/21 10:28:35;;;;;;;1.83;1.40;;;20.30;99.90;20.30;97750.00;;;;5038040;28;87376;-62
2022/07/21 10:31:25;;;;;;;3.47;1.45;;;20.40;99.90;20.50;97771.00;;;;5038824;28;86923;-62
2022/07/21 10:33:54;;;;;;;3.40;1.30;;;20.20;99.90;20.30;97776.00;;;;5035051;28;87527;-62
2022/07/21 10:36:26;;;;;;;1.45;1.35;;;20.30;99.90;20.40;97768.00;;;;5038207;28;89064;-62
2022/07/21 10:39:22;;;;;;;3.95;1.05;;;20.30;99.90;20.60;97775.00;;;;5037918;28;88064;-61
2022/07/21 10:41:55;;;;;;;3.35;1.05;;;20.40;99.90;20.40;97777.00;;;;5038211;28;87587;-61
2022/07/21 10:44:30;;;;;;;2.70;1.08;;;20.40;99.90;20.60;97783.00;;;;5038045;28;89648;-61
2022/07/21 10:47:30;;;;;;;4.90;1.58;;;20.40;99.90;20.80;97770.00;;;;5038389;28;88498;-61
2022/07/21 10:49:59;;;;;;;3.20;1.20;;;20.70;99.90;20.80;97754.00;;;;5035228;27;87199;-61
2022/07/21 10:52:45;;;;;;;1.83;1.17;;;20.70;99.90;21.00;97768.00;;;;5038982;28;87557;-61
2022/07/21 10:55:11;;;;;;;1.50;1.00;;;20.70;99.90;20.90;97754.00;;;;5037982;27;88650;-61
2022/07/21 10:57:40;;;;;;;4.13;1.33;;;20.50;99.90;20.70;97771.00;;;;5037455;27;87198;-62
2022/07/21 11:00:33;;;;;;;4.45;1.00;;;20.40;99.90;20.60;97771.00;;;;5038651;27;86973;-61
2022/07/21 11:03:27;;;;;;;1.70;1.10;;;20.50;99.90;20.60;97771.00;;;;5038128;28;86791;-62